sensor_id;sensor_type;location;lat;lon;timestamp;temperature;humidity
6293;DHT22;3179;54.350;10.102;2023-11-19T00:00:13;7.50;99.90
6293;DHT22;3179;54.350;10.102;2023-11-19T00:02:40;7.50;99.90
6293;DHT22;3179;54.350;10.102;2023-11-19T00:05:08;7.50;99.90
6293;DHT22;3179;54.350;10.102;2023-11-19T00:07:37;7.50;99.90
6293;DHT22;3179;54.350;10.102;2023-11-19T00:10:08;7.50;99.90
6293;DHT22;3179;54.350;10.102;2023-11-19T00:12:37;7.50;99.90
6293;DHT22;3179;54.350;10.102;2023-11-19T00:15:04;7.50;99.90
6293;DHT22;3179;54.350;10.102;2023-11-19T00:17:31;7.60;99.90
6293;DHT22;3179;54.350;10.102;2023-11-19T00:19:58;7.60;99.90
6293;DHT22;3179;54.350;10.102;2023-11-19T00:22:25;7.60;99.90
6293;DHT22;3179;54.350;10.102;2023-11-19T00:24:51;7.60;99.90
6293;DHT22;3179;54.350;10.102;2023-11-19T00:27:19;7.60;99.90
6293;DHT22;3179;54.350;10.102;2023-11-19T00:29:46;7.60;99.90
6293;DHT22;3179;54.350;10.102;2023-11-19T00:32:13;7.60;99.90
6293;DHT22;3179;54.350;10.102;2023-11-19T00:34:40;7.60;99.90
6293;DHT22;3179;54.350;10.102;2023-11-19T00:37:09;7.60;99.90
6293;DHT22;3179;54.350;10.102;2023-11-19T00:39:36;7.60;99.90
6293;DHT22;3179;54.350;10.102;2023-11-19T00:42:03;7.70;99.90
6293;DHT22;3179;54.350;10.102;2023-11-19T00:44:32;7.60;99.90
6293;DHT22;3179;54.350;10.102;2023-11-19T00:46:59;7.60;99.90
6293;DHT22;3179;54.350;10.102;2023-11-19T00:49:26;7.60;99.90
6293;DHT22;3179;54.350;10.102;2023-11-19T00:51:53;7.60;99.90
6293;DHT22;3179;54.350;10.102;2023-11-19T00:54:19;7.60;99.90
6293;DHT22;3179;54.350;10.102;2023-11-19T00:56:46;7.70;99.90
6293;DHT22;3179;54.350;10.102;2023-11-19T00:59:13;7.70;99.90
6293;DHT22;3179;54.350;10.102;2023-11-19T01:01:42;7.70;99.90
6293;DHT22;3179;54.350;10.102;2023-11-19T01:04:09;7.60;99.90
6293;DHT22;3179;54.350;10.102;2023-11-19T01:06:35;7.70;99.90
6293;DHT22;3179;54.350;10.102;2023-11-19T01:09:02;7.70;99.90
6293;DHT22;3179;54.350;10.102;2023-11-19T01:11:29;7.70;99.90
6293;DHT22;3179;54.350;10.102;2023-11-19T01:13:55;7.70;99.90
6293;DHT22;3179;54.350;10.102;2023-11-19T01:16:22;7.70;99.90
6293;DHT22;3179;54.350;10.102;2023-11-19T01:18:50;7.70;99.90
6293;DHT22;3179;54.350;10.102;2023-11-19T01:21:16;7.70;99.90
6293;DHT22;3179;54.350;10.102;2023-11-19T01:23:43;7.80;99.90
6293;DHT22;3179;54.350;10.102;2023-11-19T01:26:11;7.80;99.90
6293;DHT22;3179;54.350;10.102;2023-11-19T01:28:38;7.80;99.90
6293;DHT22;3179;54.350;10.102;2023-11-19T01:31:08;7.70;99.90
6293;DHT22;3179;54.350;10.102;2023-11-19T01:33:35;7.70;99.90
6293;DHT22;3179;54.350;10.102;2023-11-19T01:36:05;7.70;99.90
6293;DHT22;3179;54.350;10.102;2023-11-19T01:38:33;7.70;99.90
6293;DHT22;3179;54.350;10.102;2023-11-19T01:41:00;7.70;99.90
6293;DHT22;3179;54.350;10.102;2023-11-19T01:43:34;7.70;99.90
6293;DHT22;3179;54.350;10.102;2023-11-19T01:46:01;7.70;99.90
6293;DHT22;3179;54.350;10.102;2023-11-19T01:48:28;7.70;99.90
6293;DHT22;3179;54.350;10.102;2023-11-19T01:50:56;7.70;99.90
6293;DHT22;3179;54.350;10.102;2023-11-19T01:53:25;7.70;99.90
6293;DHT22;3179;54.350;10.102;2023-11-19T01:55:52;7.70;99.90
6293;DHT22;3179;54.350;10.102;2023-11-19T01:58:19;7.60;99.90
6293;DHT22;3179;54.350;10.102;2023-11-19T02:00:46;7.70;99.90
6293;DHT22;3179;54.350;10.102;2023-11-19T02:03:14;7.60;99.90
6293;DHT22;3179;54.350;10.102;2023-11-19T02:05:41;7.60;99.90
6293;DHT22;3179;54.350;10.102;2023-11-19T02:08:08;7.60;99.90
6293;DHT22;3179;54.350;10.102;2023-11-19T02:10:37;7.70;99.90
6293;DHT22;3179;54.350;10.102;2023-11-19T02:13:04;7.70;99.90
6293;DHT22;3179;54.350;10.102;2023-11-19T02:15:32;7.60;99.90
6293;DHT22;3179;54.350;10.102;2023-11-19T02:18:19;7.60;99.90
6293;DHT22;3179;54.350;10.102;2023-11-19T02:20:47;7.60;99.90
6293;DHT22;3179;54.350;10.102;2023-11-19T02:23:15;7.60;99.90
6293;DHT22;3179;54.350;10.102;2023-11-19T02:25:43;7.60;99.90
6293;DHT22;3179;54.350;10.102;2023-11-19T02:28:16;7.60;99.90
6293;DHT22;3179;54.350;10.102;2023-11-19T02:30:43;7.60;99.90
6293;DHT22;3179;54.350;10.102;2023-11-19T02:33:10;7.60;99.90
6293;DHT22;3179;54.350;10.102;2023-11-19T02:35:38;7.60;99.90
6293;DHT22;3179;54.350;10.102;2023-11-19T02:38:06;7.60;99.90
6293;DHT22;3179;54.350;10.102;2023-11-19T02:40:33;7.60;99.90
6293;DHT22;3179;54.350;10.102;2023-11-19T02:43:00;7.60;99.90
6293;DHT22;3179;54.350;10.102;2023-11-19T02:45:31;7.60;99.90
6293;DHT22;3179;54.350;10.102;2023-11-19T02:47:58;7.60;99.90
6293;DHT22;3179;54.350;10.102;2023-11-19T02:50:27;7.60;99.90
6293;DHT22;3179;54.350;10.102;2023-11-19T02:52:55;7.60;99.90
6293;DHT22;3179;54.350;10.102;2023-11-19T02:55:23;7.60;99.90
6293;DHT22;3179;54.350;10.102;2023-11-19T02:57:50;7.60;99.90
6293;DHT22;3179;54.350;10.102;2023-11-19T03:00:19;7.60;99.90
6293;DHT22;3179;54.350;10.102;2023-11-19T03:02:50;7.50;99.90
6293;DHT22;3179;54.350;10.102;2023-11-19T03:05:25;7.60;99.90
6293;DHT22;3179;54.350;10.102;2023-11-19T03:07:55;7.60;99.90
6293;DHT22;3179;54.350;10.102;2023-11-19T03:10:22;7.60;99.90
6293;DHT22;3179;54.350;10.102;2023-11-19T03:12:49;7.60;99.90
6293;DHT22;3179;54.350;10.102;2023-11-19T03:15:16;7.60;99.90
6293;DHT22;3179;54.350;10.102;2023-11-19T03:17:43;7.60;99.90
6293;DHT22;3179;54.350;10.102;2023-11-19T03:20:12;7.60;99.90
6293;DHT22;3179;54.350;10.102;2023-11-19T03:22:41;7.60;99.90
6293;DHT22;3179;54.350;10.102;2023-11-19T03:25:08;7.70;99.90
6293;DHT22;3179;54.350;10.102;2023-11-19T03:27:35;7.60;99.90
6293;DHT22;3179;54.350;10.102;2023-11-19T03:30:02;7.60;99.90
6293;DHT22;3179;54.350;10.102;2023-11-19T03:32:30;7.60;99.90
6293;DHT22;3179;54.350;10.102;2023-11-19T03:34:57;7.60;99.90
6293;DHT22;3179;54.350;10.102;2023-11-19T03:37:26;7.60;99.90
6293;DHT22;3179;54.350;10.102;2023-11-19T03:39:53;7.70;99.90
6293;DHT22;3179;54.350;10.102;2023-11-19T03:42:20;7.60;99.90
6293;DHT22;3179;54.350;10.102;2023-11-19T03:44:47;7.60;99.90
6293;DHT22;3179;54.350;10.102;2023-11-19T03:47:16;7.60;99.90
6293;DHT22;3179;54.350;10.102;2023-11-19T03:49:42;7.60;99.90
6293;DHT22;3179;54.350;10.102;2023-11-19T03:52:09;7.60;99.90
6293;DHT22;3179;54.350;10.102;2023-11-19T03:54:37;7.60;99.90
6293;DHT22;3179;54.350;10.102;2023-11-19T03:57:04;7.60;99.90
6293;DHT22;3179;54.350;10.102;2023-11-19T03:59:31;7.60;99.90
6293;DHT22;3179;54.350;10.102;2023-11-19T04:01:58;7.60;99.90
6293;DHT22;3179;54.350;10.102;2023-11-19T04:04:26;7.60;99.90
6293;DHT22;3179;54.350;10.102;2023-11-19T04:06:53;7.60;99.90
6293;DHT22;3179;54.350;10.102;2023-11-19T04:09:20;7.60;99.90
6293;DHT22;3179;54.350;10.102;2023-11-19T04:11:48;7.60;99.90
6293;DHT22;3179;54.350;10.102;2023-11-19T04:14:15;7.60;99.90
6293;DHT22;3179;54.350;10.102;2023-11-19T04:16:43;7.60;99.90
6293;DHT22;3179;54.350;10.102;2023-11-19T04:19:10;7.60;99.90
6293;DHT22;3179;54.350;10.102;2023-11-19T04:21:39;7.60;99.90
6293;DHT22;3179;54.350;10.102;2023-11-19T04:24:07;7.70;99.90
6293;DHT22;3179;54.350;10.102;2023-11-19T04:26:40;7.70;99.90
6293;DHT22;3179;54.350;10.102;2023-11-19T04:29:08;7.70;99.90
6293;DHT22;3179;54.350;10.102;2023-11-19T04:31:36;7.70;99.90
6293;DHT22;3179;54.350;10.102;2023-11-19T04:34:03;7.70;99.90
6293;DHT22;3179;54.350;10.102;2023-11-19T04:36:30;7.70;99.90
6293;DHT22;3179;54.350;10.102;2023-11-19T04:38:57;7.70;99.90
6293;DHT22;3179;54.350;10.102;2023-11-19T04:41:25;7.70;99.90
6293;DHT22;3179;54.350;10.102;2023-11-19T04:43:52;7.70;99.90
6293;DHT22;3179;54.350;10.102;2023-11-19T04:46:21;7.80;99.90
6293;DHT22;3179;54.350;10.102;2023-11-19T04:48:49;7.70;99.90
6293;DHT22;3179;54.350;10.102;2023-11-19T04:51:15;7.80;99.90
6293;DHT22;3179;54.350;10.102;2023-11-19T04:53:42;7.70;99.90
6293;DHT22;3179;54.350;10.102;2023-11-19T04:56:10;7.70;99.90
6293;DHT22;3179;54.350;10.102;2023-11-19T04:58:37;7.70;99.90
6293;DHT22;3179;54.350;10.102;2023-11-19T05:01:04;7.70;99.90
6293;DHT22;3179;54.350;10.102;2023-11-19T05:03:32;7.70;99.90
6293;DHT22;3179;54.350;10.102;2023-11-19T05:05:59;7.70;99.90
6293;DHT22;3179;54.350;10.102;2023-11-19T05:08:26;7.70;99.90
6293;DHT22;3179;54.350;10.102;2023-11-19T05:10:53;7.70;99.90
6293;DHT22;3179;54.350;10.102;2023-11-19T05:13:20;7.70;99.90
6293;DHT22;3179;54.350;10.102;2023-11-19T05:15:47;7.70;99.90
6293;DHT22;3179;54.350;10.102;2023-11-19T05:18:14;7.70;99.90
6293;DHT22;3179;54.350;10.102;2023-11-19T05:20:42;7.70;99.90
6293;DHT22;3179;54.350;10.102;2023-11-19T05:23:09;7.70;99.90
6293;DHT22;3179;54.350;10.102;2023-11-19T05:25:36;7.70;99.90
6293;DHT22;3179;54.350;10.102;2023-11-19T05:28:03;7.80;99.90
6293;DHT22;3179;54.350;10.102;2023-11-19T05:30:30;7.80;99.90
6293;DHT22;3179;54.350;10.102;2023-11-19T05:32:57;7.80;99.90
6293;DHT22;3179;54.350;10.102;2023-11-19T05:35:24;7.80;99.90
6293;DHT22;3179;54.350;10.102;2023-11-19T05:37:52;7.80;99.90
6293;DHT22;3179;54.350;10.102;2023-11-19T05:40:19;7.80;99.90
6293;DHT22;3179;54.350;10.102;2023-11-19T05:42:46;7.80;99.90
6293;DHT22;3179;54.350;10.102;2023-11-19T05:45:13;7.90;99.90
6293;DHT22;3179;54.350;10.102;2023-11-19T05:47:40;7.90;99.90
6293;DHT22;3179;54.350;10.102;2023-11-19T05:50:08;7.90;99.90
6293;DHT22;3179;54.350;10.102;2023-11-19T05:52:35;7.90;99.90
6293;DHT22;3179;54.350;10.102;2023-11-19T05:55:04;7.90;99.90
6293;DHT22;3179;54.350;10.102;2023-11-19T05:57:34;8.00;99.90
6293;DHT22;3179;54.350;10.102;2023-11-19T06:00:01;8.00;99.90
6293;DHT22;3179;54.350;10.102;2023-11-19T06:02:29;8.00;99.90
6293;DHT22;3179;54.350;10.102;2023-11-19T06:04:55;8.00;99.90
6293;DHT22;3179;54.350;10.102;2023-11-19T06:07:22;8.00;99.90
6293;DHT22;3179;54.350;10.102;2023-11-19T06:09:49;8.00;99.90
6293;DHT22;3179;54.350;10.102;2023-11-19T06:12:17;8.10;99.90
6293;DHT22;3179;54.350;10.102;2023-11-19T06:14:44;8.10;99.90
6293;DHT22;3179;54.350;10.102;2023-11-19T06:17:11;8.10;99.90
6293;DHT22;3179;54.350;10.102;2023-11-19T06:19:38;8.10;99.90
6293;DHT22;3179;54.350;10.102;2023-11-19T06:22:04;8.20;99.90
6293;DHT22;3179;54.350;10.102;2023-11-19T06:24:32;8.20;99.90
6293;DHT22;3179;54.350;10.102;2023-11-19T06:26:59;8.20;99.90
6293;DHT22;3179;54.350;10.102;2023-11-19T06:29:27;8.20;99.90
6293;DHT22;3179;54.350;10.102;2023-11-19T06:31:53;8.30;99.90
6293;DHT22;3179;54.350;10.102;2023-11-19T06:34:20;8.20;99.90
6293;DHT22;3179;54.350;10.102;2023-11-19T06:36:47;8.30;99.90
6293;DHT22;3179;54.350;10.102;2023-11-19T06:39:14;8.30;99.90
6293;DHT22;3179;54.350;10.102;2023-11-19T06:41:45;8.30;99.90
6293;DHT22;3179;54.350;10.102;2023-11-19T06:44:12;8.30;99.90
6293;DHT22;3179;54.350;10.102;2023-11-19T06:46:40;8.30;99.90
6293;DHT22;3179;54.350;10.102;2023-11-19T06:49:07;8.30;99.90
6293;DHT22;3179;54.350;10.102;2023-11-19T06:51:34;8.40;99.90
6293;DHT22;3179;54.350;10.102;2023-11-19T06:54:00;8.30;99.90
6293;DHT22;3179;54.350;10.102;2023-11-19T06:56:27;8.40;99.90
6293;DHT22;3179;54.350;10.102;2023-11-19T06:58:54;8.40;99.90
6293;DHT22;3179;54.350;10.102;2023-11-19T07:01:20;8.40;99.90
6293;DHT22;3179;54.350;10.102;2023-11-19T07:03:48;8.50;99.90
6293;DHT22;3179;54.350;10.102;2023-11-19T07:06:16;8.50;99.90
6293;DHT22;3179;54.350;10.102;2023-11-19T07:08:44;8.50;99.90
6293;DHT22;3179;54.350;10.102;2023-11-19T07:11:11;8.50;99.90
6293;DHT22;3179;54.350;10.102;2023-11-19T07:13:40;8.50;99.90
6293;DHT22;3179;54.350;10.102;2023-11-19T07:16:08;8.50;99.90
6293;DHT22;3179;54.350;10.102;2023-11-19T07:18:38;8.50;99.90
6293;DHT22;3179;54.350;10.102;2023-11-19T07:21:06;8.60;99.90
6293;DHT22;3179;54.350;10.102;2023-11-19T07:23:35;8.60;99.90
6293;DHT22;3179;54.350;10.102;2023-11-19T07:26:05;8.60;99.90
6293;DHT22;3179;54.350;10.102;2023-11-19T07:28:32;8.60;99.90
6293;DHT22;3179;54.350;10.102;2023-11-19T07:30:59;8.60;99.90
6293;DHT22;3179;54.350;10.102;2023-11-19T07:33:25;8.60;99.90
6293;DHT22;3179;54.350;10.102;2023-11-19T07:35:52;8.70;99.90
6293;DHT22;3179;54.350;10.102;2023-11-19T07:38:20;8.70;99.90
6293;DHT22;3179;54.350;10.102;2023-11-19T07:40:47;8.70;99.90
6293;DHT22;3179;54.350;10.102;2023-11-19T07:43:14;8.70;99.90
6293;DHT22;3179;54.350;10.102;2023-11-19T07:45:41;8.80;99.90
6293;DHT22;3179;54.350;10.102;2023-11-19T07:48:09;8.80;99.90
6293;DHT22;3179;54.350;10.102;2023-11-19T07:50:36;8.80;99.90
6293;DHT22;3179;54.350;10.102;2023-11-19T07:53:05;8.90;99.90
6293;DHT22;3179;54.350;10.102;2023-11-19T07:55:34;8.90;99.90
6293;DHT22;3179;54.350;10.102;2023-11-19T07:58:01;9.00;99.90
6293;DHT22;3179;54.350;10.102;2023-11-19T08:00:27;9.00;99.90
6293;DHT22;3179;54.350;10.102;2023-11-19T08:02:54;9.00;99.90
6293;DHT22;3179;54.350;10.102;2023-11-19T08:05:21;9.10;99.90
6293;DHT22;3179;54.350;10.102;2023-11-19T08:07:50;9.20;99.90
6293;DHT22;3179;54.350;10.102;2023-11-19T08:10:17;9.20;99.90
6293;DHT22;3179;54.350;10.102;2023-11-19T08:12:45;9.30;99.90
6293;DHT22;3179;54.350;10.102;2023-11-19T08:15:12;9.30;99.90
6293;DHT22;3179;54.350;10.102;2023-11-19T08:17:39;9.30;99.90
6293;DHT22;3179;54.350;10.102;2023-11-19T08:20:07;9.40;99.90
6293;DHT22;3179;54.350;10.102;2023-11-19T08:22:35;9.40;99.90
6293;DHT22;3179;54.350;10.102;2023-11-19T08:25:03;9.50;99.90
6293;DHT22;3179;54.350;10.102;2023-11-19T08:27:30;9.50;99.90
6293;DHT22;3179;54.350;10.102;2023-11-19T08:29:58;9.60;99.90
6293;DHT22;3179;54.350;10.102;2023-11-19T08:32:25;9.70;99.90
6293;DHT22;3179;54.350;10.102;2023-11-19T08:34:52;9.70;99.90
6293;DHT22;3179;54.350;10.102;2023-11-19T08:37:19;9.80;99.90
6293;DHT22;3179;54.350;10.102;2023-11-19T08:39:47;9.90;99.90
6293;DHT22;3179;54.350;10.102;2023-11-19T08:42:14;9.90;99.90
6293;DHT22;3179;54.350;10.102;2023-11-19T08:44:41;10.00;99.90
6293;DHT22;3179;54.350;10.102;2023-11-19T08:47:11;10.00;99.90
6293;DHT22;3179;54.350;10.102;2023-11-19T08:49:38;10.10;99.90
6293;DHT22;3179;54.350;10.102;2023-11-19T08:52:05;10.10;99.90
6293;DHT22;3179;54.350;10.102;2023-11-19T08:54:32;10.10;99.90
6293;DHT22;3179;54.350;10.102;2023-11-19T08:56:59;10.20;99.90
6293;DHT22;3179;54.350;10.102;2023-11-19T08:59:26;10.20;99.90
6293;DHT22;3179;54.350;10.102;2023-11-19T09:01:53;10.20;99.90
6293;DHT22;3179;54.350;10.102;2023-11-19T09:04:21;10.20;99.90
6293;DHT22;3179;54.350;10.102;2023-11-19T09:06:48;10.30;99.90
6293;DHT22;3179;54.350;10.102;2023-11-19T09:09:15;10.30;99.90
6293;DHT22;3179;54.350;10.102;2023-11-19T09:11:42;10.40;99.90
6293;DHT22;3179;54.350;10.102;2023-11-19T09:14:09;10.40;99.90
6293;DHT22;3179;54.350;10.102;2023-11-19T09:16:35;10.50;99.90
6293;DHT22;3179;54.350;10.102;2023-11-19T09:19:02;10.50;99.90
6293;DHT22;3179;54.350;10.102;2023-11-19T09:21:30;10.50;99.90
6293;DHT22;3179;54.350;10.102;2023-11-19T09:23:57;10.60;99.90
6293;DHT22;3179;54.350;10.102;2023-11-19T09:26:24;10.60;99.90
6293;DHT22;3179;54.350;10.102;2023-11-19T09:28:51;10.70;99.90
6293;DHT22;3179;54.350;10.102;2023-11-19T09:31:18;10.60;99.90
6293;DHT22;3179;54.350;10.102;2023-11-19T09:33:45;10.70;99.90
6293;DHT22;3179;54.350;10.102;2023-11-19T09:36:12;10.70;99.90
6293;DHT22;3179;54.350;10.102;2023-11-19T09:38:41;10.70;99.90
6293;DHT22;3179;54.350;10.102;2023-11-19T09:41:09;10.80;99.90
6293;DHT22;3179;54.350;10.102;2023-11-19T09:43:38;10.80;99.90
6293;DHT22;3179;54.350;10.102;2023-11-19T09:46:07;10.80;99.90
6293;DHT22;3179;54.350;10.102;2023-11-19T09:48:38;10.80;99.90
6293;DHT22;3179;54.350;10.102;2023-11-19T09:51:06;10.80;99.90
6293;DHT22;3179;54.350;10.102;2023-11-19T09:53:32;10.90;99.90
6293;DHT22;3179;54.350;10.102;2023-11-19T09:56:02;10.90;99.90
6293;DHT22;3179;54.350;10.102;2023-11-19T09:58:29;10.90;99.90
6293;DHT22;3179;54.350;10.102;2023-11-19T10:00:57;10.90;99.90
6293;DHT22;3179;54.350;10.102;2023-11-19T10:03:25;10.90;99.90
6293;DHT22;3179;54.350;10.102;2023-11-19T10:05:54;11.00;99.90
6293;DHT22;3179;54.350;10.102;2023-11-19T10:08:24;11.00;99.90
6293;DHT22;3179;54.350;10.102;2023-11-19T10:10:51;11.00;99.90
6293;DHT22;3179;54.350;10.102;2023-11-19T10:13:19;11.00;99.90
6293;DHT22;3179;54.350;10.102;2023-11-19T10:15:47;11.00;99.90
6293;DHT22;3179;54.350;10.102;2023-11-19T10:18:15;11.10;99.90
6293;DHT22;3179;54.350;10.102;2023-11-19T10:20:42;11.10;99.90
6293;DHT22;3179;54.350;10.102;2023-11-19T10:23:09;11.10;99.90
6293;DHT22;3179;54.350;10.102;2023-11-19T10:25:36;11.10;99.90
6293;DHT22;3179;54.350;10.102;2023-11-19T10:28:03;11.10;99.90
6293;DHT22;3179;54.350;10.102;2023-11-19T10:30:31;11.10;99.90
6293;DHT22;3179;54.350;10.102;2023-11-19T10:33:04;11.10;99.90
6293;DHT22;3179;54.350;10.102;2023-11-19T10:35:31;11.20;99.90
6293;DHT22;3179;54.350;10.102;2023-11-19T10:37:59;11.20;99.90
6293;DHT22;3179;54.350;10.102;2023-11-19T10:40:38;11.20;99.90
6293;DHT22;3179;54.350;10.102;2023-11-19T10:43:06;11.30;99.90
6293;DHT22;3179;54.350;10.102;2023-11-19T10:45:35;11.30;99.90
6293;DHT22;3179;54.350;10.102;2023-11-19T10:48:03;11.30;99.90
6293;DHT22;3179;54.350;10.102;2023-11-19T10:50:32;11.30;99.90
6293;DHT22;3179;54.350;10.102;2023-11-19T10:52:59;11.30;99.90
6293;DHT22;3179;54.350;10.102;2023-11-19T10:55:27;11.30;99.90
6293;DHT22;3179;54.350;10.102;2023-11-19T10:57:58;11.40;99.90
6293;DHT22;3179;54.350;10.102;2023-11-19T11:00:26;11.40;99.90
6293;DHT22;3179;54.350;10.102;2023-11-19T11:03:01;11.40;99.90
6293;DHT22;3179;54.350;10.102;2023-11-19T11:05:29;11.60;99.90
6293;DHT22;3179;54.350;10.102;2023-11-19T11:08:00;11.60;99.90
6293;DHT22;3179;54.350;10.102;2023-11-19T11:10:28;11.60;99.90
6293;DHT22;3179;54.350;10.102;2023-11-19T11:12:59;11.60;99.90
6293;DHT22;3179;54.350;10.102;2023-11-19T11:15:27;11.70;99.90
6293;DHT22;3179;54.350;10.102;2023-11-19T11:18:00;11.70;99.90
6293;DHT22;3179;54.350;10.102;2023-11-19T11:20:29;11.60;99.90
6293;DHT22;3179;54.350;10.102;2023-11-19T11:25:57;11.70;99.90
6293;DHT22;3179;54.350;10.102;2023-11-19T11:28:33;11.70;99.90
6293;DHT22;3179;54.350;10.102;2023-11-19T11:31:20;11.70;99.90
6293;DHT22;3179;54.350;10.102;2023-11-19T11:34:11;11.70;99.90
6293;DHT22;3179;54.350;10.102;2023-11-19T11:36:51;11.60;99.90
6293;DHT22;3179;54.350;10.102;2023-11-19T11:39:22;11.70;99.90
6293;DHT22;3179;54.350;10.102;2023-11-19T11:42:31;11.70;99.90
6293;DHT22;3179;54.350;10.102;2023-11-19T11:44:59;11.70;99.90
6293;DHT22;3179;54.350;10.102;2023-11-19T11:50:54;11.70;99.90
6293;DHT22;3179;54.350;10.102;2023-11-19T11:53:22;11.70;99.90
6293;DHT22;3179;54.350;10.102;2023-11-19T11:55:56;11.70;99.90
6293;DHT22;3179;54.350;10.102;2023-11-19T11:58:30;11.70;99.90
6293;DHT22;3179;54.350;10.102;2023-11-19T12:00:58;11.70;99.90
6293;DHT22;3179;54.350;10.102;2023-11-19T12:03:28;11.60;99.90
6293;DHT22;3179;54.350;10.102;2023-11-19T12:05:57;11.60;99.90
6293;DHT22;3179;54.350;10.102;2023-11-19T12:08:28;11.70;99.90
6293;DHT22;3179;54.350;10.102;2023-11-19T12:10:57;11.70;99.90
6293;DHT22;3179;54.350;10.102;2023-11-19T12:13:29;11.70;99.90
6293;DHT22;3179;54.350;10.102;2023-11-19T12:16:09;11.70;99.90
6293;DHT22;3179;54.350;10.102;2023-11-19T12:18:36;11.70;99.90
6293;DHT22;3179;54.350;10.102;2023-11-19T12:21:07;11.60;99.90
6293;DHT22;3179;54.350;10.102;2023-11-19T12:23:35;11.70;99.90
6293;DHT22;3179;54.350;10.102;2023-11-19T12:26:02;11.60;99.90
6293;DHT22;3179;54.350;10.102;2023-11-19T12:28:29;11.60;99.90
6293;DHT22;3179;54.350;10.102;2023-11-19T12:31:07;11.60;99.90
6293;DHT22;3179;54.350;10.102;2023-11-19T12:33:35;11.60;99.90
6293;DHT22;3179;54.350;10.102;2023-11-19T12:36:04;11.60;99.90
6293;DHT22;3179;54.350;10.102;2023-11-19T12:38:33;11.60;99.90
6293;DHT22;3179;54.350;10.102;2023-11-19T12:41:03;11.60;99.90
6293;DHT22;3179;54.350;10.102;2023-11-19T12:43:32;11.60;99.90
6293;DHT22;3179;54.350;10.102;2023-11-19T12:45:59;11.60;99.90
6293;DHT22;3179;54.350;10.102;2023-11-19T12:48:26;11.60;99.90
6293;DHT22;3179;54.350;10.102;2023-11-19T12:50:53;11.60;99.90
6293;DHT22;3179;54.350;10.102;2023-11-19T12:53:21;11.70;99.90
6293;DHT22;3179;54.350;10.102;2023-11-19T12:55:50;11.70;99.90
6293;DHT22;3179;54.350;10.102;2023-11-19T12:58:29;11.70;99.90
6293;DHT22;3179;54.350;10.102;2023-11-19T13:01:00;11.70;99.90
6293;DHT22;3179;54.350;10.102;2023-11-19T13:03:31;11.70;99.90
6293;DHT22;3179;54.350;10.102;2023-11-19T13:06:02;11.70;99.90
6293;DHT22;3179;54.350;10.102;2023-11-19T13:08:36;11.70;99.90
6293;DHT22;3179;54.350;10.102;2023-11-19T13:11:05;11.70;99.90
6293;DHT22;3179;54.350;10.102;2023-11-19T13:13:33;11.60;99.90
6293;DHT22;3179;54.350;10.102;2023-11-19T13:16:04;11.70;99.90
6293;DHT22;3179;54.350;10.102;2023-11-19T13:18:32;11.70;99.90
6293;DHT22;3179;54.350;10.102;2023-11-19T13:20:58;11.70;99.90
6293;DHT22;3179;54.350;10.102;2023-11-19T13:23:25;11.60;99.90
6293;DHT22;3179;54.350;10.102;2023-11-19T13:25:52;11.60;99.90
6293;DHT22;3179;54.350;10.102;2023-11-19T13:28:20;11.60;99.90
6293;DHT22;3179;54.350;10.102;2023-11-19T13:30:48;11.60;99.90
6293;DHT22;3179;54.350;10.102;2023-11-19T13:33:15;11.60;99.90
6293;DHT22;3179;54.350;10.102;2023-11-19T13:35:41;11.70;99.90
6293;DHT22;3179;54.350;10.102;2023-11-19T13:38:08;11.70;99.90
6293;DHT22;3179;54.350;10.102;2023-11-19T13:40:35;11.70;99.90
6293;DHT22;3179;54.350;10.102;2023-11-19T13:43:02;11.70;99.90
6293;DHT22;3179;54.350;10.102;2023-11-19T13:45:30;11.70;99.90
6293;DHT22;3179;54.350;10.102;2023-11-19T13:47:57;11.70;99.90
6293;DHT22;3179;54.350;10.102;2023-11-19T13:50:24;11.70;99.90
6293;DHT22;3179;54.350;10.102;2023-11-19T13:52:51;11.70;99.90
6293;DHT22;3179;54.350;10.102;2023-11-19T13:55:18;11.70;99.90
6293;DHT22;3179;54.350;10.102;2023-11-19T13:57:45;11.70;99.90
6293;DHT22;3179;54.350;10.102;2023-11-19T14:00:13;11.70;99.90
6293;DHT22;3179;54.350;10.102;2023-11-19T14:02:43;11.70;99.90
6293;DHT22;3179;54.350;10.102;2023-11-19T14:05:10;11.70;99.90
6293;DHT22;3179;54.350;10.102;2023-11-19T14:07:37;11.70;99.90
6293;DHT22;3179;54.350;10.102;2023-11-19T14:10:05;11.70;99.90
6293;DHT22;3179;54.350;10.102;2023-11-19T14:12:32;11.70;99.90
6293;DHT22;3179;54.350;10.102;2023-11-19T14:14:59;11.70;99.90
6293;DHT22;3179;54.350;10.102;2023-11-19T14:17:26;11.70;99.90
6293;DHT22;3179;54.350;10.102;2023-11-19T14:19:54;11.70;99.90
6293;DHT22;3179;54.350;10.102;2023-11-19T14:22:21;11.70;99.90
6293;DHT22;3179;54.350;10.102;2023-11-19T14:24:48;11.70;99.90
6293;DHT22;3179;54.350;10.102;2023-11-19T14:27:14;11.70;99.90
6293;DHT22;3179;54.350;10.102;2023-11-19T14:29:42;11.70;99.90
6293;DHT22;3179;54.350;10.102;2023-11-19T14:32:10;11.70;99.90
6293;DHT22;3179;54.350;10.102;2023-11-19T14:34:37;11.70;99.90
6293;DHT22;3179;54.350;10.102;2023-11-19T14:37:05;11.70;99.90
6293;DHT22;3179;54.350;10.102;2023-11-19T14:39:32;11.70;99.90
6293;DHT22;3179;54.350;10.102;2023-11-19T14:41:58;11.70;99.90
6293;DHT22;3179;54.350;10.102;2023-11-19T14:44:29;11.70;99.90
6293;DHT22;3179;54.350;10.102;2023-11-19T14:46:56;11.70;99.90
6293;DHT22;3179;54.350;10.102;2023-11-19T14:49:23;11.70;99.90
6293;DHT22;3179;54.350;10.102;2023-11-19T14:51:51;11.70;99.90
6293;DHT22;3179;54.350;10.102;2023-11-19T14:54:19;11.70;99.90
6293;DHT22;3179;54.350;10.102;2023-11-19T14:56:46;11.70;99.90
6293;DHT22;3179;54.350;10.102;2023-11-19T14:59:13;11.60;99.90
6293;DHT22;3179;54.350;10.102;2023-11-19T15:01:42;11.60;99.90
6293;DHT22;3179;54.350;10.102;2023-11-19T15:04:13;11.60;99.90
6293;DHT22;3179;54.350;10.102;2023-11-19T15:06:40;11.60;99.90
6293;DHT22;3179;54.350;10.102;2023-11-19T15:09:07;11.60;99.90
6293;DHT22;3179;54.350;10.102;2023-11-19T15:11:36;11.60;99.90
6293;DHT22;3179;54.350;10.102;2023-11-19T15:14:03;11.60;99.90
6293;DHT22;3179;54.350;10.102;2023-11-19T15:16:31;11.60;99.90
6293;DHT22;3179;54.350;10.102;2023-11-19T15:19:00;11.50;99.90
6293;DHT22;3179;54.350;10.102;2023-11-19T15:21:28;11.60;99.90
6293;DHT22;3179;54.350;10.102;2023-11-19T15:23:58;11.60;99.90
6293;DHT22;3179;54.350;10.102;2023-11-19T15:26:24;11.60;99.90
6293;DHT22;3179;54.350;10.102;2023-11-19T15:28:53;11.50;99.90
6293;DHT22;3179;54.350;10.102;2023-11-19T15:31:21;11.50;99.90
6293;DHT22;3179;54.350;10.102;2023-11-19T15:33:48;11.60;99.90
6293;DHT22;3179;54.350;10.102;2023-11-19T15:36:16;11.50;99.90
6293;DHT22;3179;54.350;10.102;2023-11-19T15:38:43;11.50;99.90
6293;DHT22;3179;54.350;10.102;2023-11-19T15:41:09;11.50;99.90
6293;DHT22;3179;54.350;10.102;2023-11-19T15:43:37;11.50;99.90
6293;DHT22;3179;54.350;10.102;2023-11-19T15:46:07;11.50;99.90
6293;DHT22;3179;54.350;10.102;2023-11-19T15:48:34;11.50;99.90
6293;DHT22;3179;54.350;10.102;2023-11-19T15:51:01;11.50;99.90
6293;DHT22;3179;54.350;10.102;2023-11-19T15:53:29;11.50;99.90
6293;DHT22;3179;54.350;10.102;2023-11-19T15:55:56;11.60;99.90
6293;DHT22;3179;54.350;10.102;2023-11-19T15:58:23;11.50;99.90
6293;DHT22;3179;54.350;10.102;2023-11-19T16:00:50;11.50;99.90
6293;DHT22;3179;54.350;10.102;2023-11-19T16:03:18;11.50;99.90
6293;DHT22;3179;54.350;10.102;2023-11-19T16:05:45;11.50;99.90